Great Bend, KS

6:05 AM CST on March 04, 2015 (GMT -0600)
Russell Municipal | Change Station
CLOSE
Current Station
Airport
Location: Russell,
Elevation: 1864 ft
Nearby Weather Stations
Active Advisory: Winter Weather Advisory Active Notice: Public Information Statement

Elev 1864 ft 38.87 °N, 98.81 °W | Updated 12 minutes ago

Overcast
Overcast
18 °F
Feels Like 5 °F
N
13
Wind Variable Wind from NNE

Today
High -- | Low -- °F
--% Chance of Precip.
Yesterday
High -- | Low -- °F
Precip. -- in
7:03 AM 6:31 PM
Waxing Gibbous, 99% visible
Pressure 30.27 in
Visibility 4.0 miles
Clouds Few 1400 ft
Overcast 3400 ft
Windchill 5 °F
Dew Point 14 °F
Humidity 84%
Rainfall 0.00 in
Snow Depth Not available.
UV 0 out of 12
Pollen 3.90 out of 12
Air Quality Not available.
Flu Activity Not available.
METAR KRSL 041153Z AUTO 02011KT 4SM -SN BR FEW014 OVC034 M08/M10 A3020 RMK AO2 SLP251 P0000 60000 T10781100 11039 21078 53023

More Conditions Fewer Conditions

Pressure 30.27 in
Visibility 4.0 miles
Clouds Few 1400 ft
Overcast 3400 ft
Windchill 5 °F
Dew Point 14 °F
Humidity 84%
Rainfall 0.00 in
Snow Depth Not available.
UV 0 out of 12
Pollen 3.90 out of 12
Air Quality Not available.
Flu Activity Not available.
METAR KRSL 041153Z AUTO 02011KT 4SM -SN BR FEW014 OVC034 M08/M10 A3020 RMK AO2 SLP251 P0000 60000 T10781100 11039 21078 53023

More Conditions Fewer Conditions

10-Day Weather Forecast

Almanac

Astronomy

Mar. 04, 2015 Rise Set
Actual Time
Civil Twilight
Nautical Twilight
Astronomical Twilight
Moon
Length of Visible Light
Length of Day
Tomorrow will be .
, % of the Moon is Illuminated

Today's Extremes

State Highs State Lows

Community

WunderPhotos

Upload Photos

1,802,436 photos uploaded!

WunderBlogs® & News

Nearby

Air Quality

  Air Quality AQ Index Pollutant
Not available.

Snow Depth

Station Depth Elevation

Earthquake Activity

City Distance Mag. Time & Date
Minimum magnitude displayed is 2.5.

Coastal Water Temperatures

Place Temperature

Nearby Weather Stations

Winter Weather Advisory
Statement as of 3:01 AM CST on March 04, 2015

... Winter Weather Advisory remains in effect until 6 PM CST this
evening...

* timing... a band of light to moderate snow will affect the area
mainly this morning. The band of snow will then sink slowly
southward and exit the area by later this afternoon.

* Snow accumulations... will generally range from 1 to 2
inches... mainly for locations along and near a Hutchinson to
Newton... to Marion line. Snow accumulations are expected to be
slightly Lower North and south of this line.

* Main impact... the snow accumulation will cause some slick spots
on roadways.

Precautionary/preparedness actions...

A Winter Weather Advisory means that periods of winter weather
will cause travel difficulties. Be prepared for slippery roads
and limited visibilities. Use caution while driving.



Jakub